KRTN/RTN METAR and TAF weather

Enter ICAO airport designator
Station Type Date Time Source
KRTN METAR 2020/04/01 22:53 UTC NOAA

KRTN 012253Z AUTO 28016KT 10SM FEW120 18/M08 A2973 RMK AO2 SLP010 T01831078


Station Type Date Time Source
KRTN Decoded METAR 2020/04/01 22:53 UTC NOAA

Raton, Raton Municipal \ Crews Field Airport, NM, United States (KRTN) 36-44-31N 104-39-28W 1939M
Apr 01, 2020 - 06:53 PM EDT / 2020.04.01 2253 UTC
Wind: from the W (280 degrees) at 18 MPH (16 KT):0
Visibility: 10 mile(s):0
Sky conditions: mostly clear
Temperature: 64.9 F (18.3 C)
Dew Point: 18.0 F (-7.8 C)
Relative Humidity: 16%
Pressure (altimeter): 29.73 in. Hg (1006 hPa)
ob: KRTN 012253Z AUTO 28016KT 10SM FEW120 18/M08 A2973 RMK AO2 SLP010 T01831078
cycle: 23

Station Type Date Time Source
KRTN TAF UTC NOAA

Error!

Example: see airport list